sensor_id;sensor_type;location;lat;lon;timestamp;pressure;altitude;pressure_sealevel;temperature;humidity
28008;BME280;15333;50.010;20.020;2023-12-20T00:01:05;98290.34;;;7.26;53.70
28008;BME280;15333;50.010;20.020;2023-12-20T00:04:18;98294.81;;;7.26;53.71
28008;BME280;15333;50.010;20.020;2023-12-20T00:07:19;98293.69;;;7.17;53.92
28008;BME280;15333;50.010;20.020;2023-12-20T00:10:20;98280.25;;;7.06;54.34
28008;BME280;15333;50.010;20.020;2023-12-20T00:13:21;98280.16;;;6.95;54.66
28008;BME280;15333;50.010;20.020;2023-12-20T00:16:22;98284.19;;;6.88;54.76
28008;BME280;15333;50.010;20.020;2023-12-20T00:19:23;98275.03;;;6.92;54.79
28008;BME280;15333;50.010;20.020;2023-12-20T00:22:24;98277.16;;;6.87;54.98
28008;BME280;15333;50.010;20.020;2023-12-20T00:25:25;98266.44;;;6.88;54.93
28008;BME280;15333;50.010;20.020;2023-12-20T00:28:26;98278.13;;;6.86;55.19
28008;BME280;15333;50.010;20.020;2023-12-20T00:31:27;98266.31;;;6.77;55.01
28008;BME280;15333;50.010;20.020;2023-12-20T00:34:28;98263.97;;;6.73;55.43
28008;BME280;15333;50.010;20.020;2023-12-20T00:37:29;98256.50;;;6.78;54.94
28008;BME280;15333;50.010;20.020;2023-12-20T00:40:29;98256.94;;;6.72;55.41
28008;BME280;15333;50.010;20.020;2023-12-20T00:43:30;98249.06;;;6.70;55.43
28008;BME280;15333;50.010;20.020;2023-12-20T00:46:31;98240.75;;;6.62;55.84
28008;BME280;15333;50.010;20.020;2023-12-20T00:49:32;98238.22;;;6.60;56.19
28008;BME280;15333;50.010;20.020;2023-12-20T00:52:33;98241.91;;;6.45;56.45
28008;BME280;15333;50.010;20.020;2023-12-20T00:55:34;98232.66;;;6.38;57.54
28008;BME280;15333;50.010;20.020;2023-12-20T00:58:34;98238.84;;;6.51;56.94
28008;BME280;15333;50.010;20.020;2023-12-20T01:01:35;98230.78;;;6.53;56.64
28008;BME280;15333;50.010;20.020;2023-12-20T01:04:36;98233.75;;;6.74;55.61
28008;BME280;15333;50.010;20.020;2023-12-20T01:07:37;98232.81;;;6.75;55.92
28008;BME280;15333;50.010;20.020;2023-12-20T01:10:38;98226.50;;;6.76;55.49
28008;BME280;15333;50.010;20.020;2023-12-20T01:13:39;98233.34;;;6.80;54.95
28008;BME280;15333;50.010;20.020;2023-12-20T01:16:39;98234.81;;;6.84;54.87
28008;BME280;15333;50.010;20.020;2023-12-20T01:19:40;98231.94;;;6.87;55.05
28008;BME280;15333;50.010;20.020;2023-12-20T01:22:41;98223.44;;;6.82;55.00
28008;BME280;15333;50.010;20.020;2023-12-20T01:25:43;98226.75;;;6.73;55.39
28008;BME280;15333;50.010;20.020;2023-12-20T01:28:44;98211.50;;;6.62;56.04
28008;BME280;15333;50.010;20.020;2023-12-20T01:31:45;98209.50;;;6.53;56.02
28008;BME280;15333;50.010;20.020;2023-12-20T01:34:46;98210.53;;;6.38;57.16
28008;BME280;15333;50.010;20.020;2023-12-20T01:37:47;98206.69;;;6.29;57.32
28008;BME280;15333;50.010;20.020;2023-12-20T01:40:47;98199.69;;;6.28;57.72
28008;BME280;15333;50.010;20.020;2023-12-20T01:43:48;98182.69;;;6.18;57.85
28008;BME280;15333;50.010;20.020;2023-12-20T01:46:49;98175.38;;;5.95;59.80
28008;BME280;15333;50.010;20.020;2023-12-20T01:49:50;98172.53;;;5.83;59.81
28008;BME280;15333;50.010;20.020;2023-12-20T01:52:52;98165.56;;;5.82;58.57
28008;BME280;15333;50.010;20.020;2023-12-20T01:55:55;98162.34;;;5.77;59.27
28008;BME280;15333;50.010;20.020;2023-12-20T01:58:56;98148.41;;;6.01;57.71
28008;BME280;15333;50.010;20.020;2023-12-20T02:01:58;98141.31;;;6.14;56.96
28008;BME280;15333;50.010;20.020;2023-12-20T02:04:59;98146.75;;;6.25;55.99
28008;BME280;15333;50.010;20.020;2023-12-20T02:08:00;98142.72;;;6.32;55.17
28008;BME280;15333;50.010;20.020;2023-12-20T02:11:01;98131.25;;;6.44;54.27
28008;BME280;15333;50.010;20.020;2023-12-20T02:14:02;98126.69;;;6.46;54.19
28008;BME280;15333;50.010;20.020;2023-12-20T02:17:03;98133.38;;;6.52;53.44
28008;BME280;15333;50.010;20.020;2023-12-20T02:20:04;98127.28;;;6.62;53.09
28008;BME280;15333;50.010;20.020;2023-12-20T02:23:06;98127.63;;;6.58;52.99
28008;BME280;15333;50.010;20.020;2023-12-20T02:26:07;98116.13;;;6.57;53.37
28008;BME280;15333;50.010;20.020;2023-12-20T02:29:08;98113.56;;;6.68;52.73
28008;BME280;15333;50.010;20.020;2023-12-20T02:32:09;98109.97;;;6.57;52.97
28008;BME280;15333;50.010;20.020;2023-12-20T02:35:09;98112.09;;;6.64;52.68
28008;BME280;15333;50.010;20.020;2023-12-20T02:38:10;98109.94;;;6.69;51.88
28008;BME280;15333;50.010;20.020;2023-12-20T02:41:11;98100.81;;;6.74;52.02
28008;BME280;15333;50.010;20.020;2023-12-20T02:44:12;98096.97;;;6.78;51.78
28008;BME280;15333;50.010;20.020;2023-12-20T02:47:13;98093.53;;;6.76;52.05
28008;BME280;15333;50.010;20.020;2023-12-20T02:50:14;98093.53;;;6.76;51.62
28008;BME280;15333;50.010;20.020;2023-12-20T02:53:15;98083.16;;;6.73;52.00
28008;BME280;15333;50.010;20.020;2023-12-20T02:56:16;98081.25;;;6.75;51.43
28008;BME280;15333;50.010;20.020;2023-12-20T02:59:16;98097.84;;;6.65;51.68
28008;BME280;15333;50.010;20.020;2023-12-20T03:02:17;98106.63;;;6.79;50.78
28008;BME280;15333;50.010;20.020;2023-12-20T03:05:19;98109.06;;;6.94;50.08
28008;BME280;15333;50.010;20.020;2023-12-20T03:08:21;98107.66;;;7.01;49.61
28008;BME280;15333;50.010;20.020;2023-12-20T03:11:22;98100.28;;;7.05;49.19
28008;BME280;15333;50.010;20.020;2023-12-20T03:14:26;98098.38;;;7.07;49.68
28008;BME280;15333;50.010;20.020;2023-12-20T03:17:27;98098.22;;;7.21;48.69
28008;BME280;15333;50.010;20.020;2023-12-20T03:20:28;98092.41;;;7.16;48.81
28008;BME280;15333;50.010;20.020;2023-12-20T03:23:29;98098.16;;;7.10;48.61
28008;BME280;15333;50.010;20.020;2023-12-20T03:26:31;98095.09;;;7.27;48.08
28008;BME280;15333;50.010;20.020;2023-12-20T03:29:32;98098.44;;;7.18;48.51
28008;BME280;15333;50.010;20.020;2023-12-20T03:32:33;98090.84;;;7.25;48.34
28008;BME280;15333;50.010;20.020;2023-12-20T03:35:34;98100.09;;;7.32;48.24
28008;BME280;15333;50.010;20.020;2023-12-20T03:38:35;98096.59;;;7.31;48.30
28008;BME280;15333;50.010;20.020;2023-12-20T03:41:35;98099.75;;;7.36;47.95
28008;BME280;15333;50.010;20.020;2023-12-20T03:44:38;98102.94;;;7.41;47.83
28008;BME280;15333;50.010;20.020;2023-12-20T03:47:40;98105.47;;;7.43;48.12
28008;BME280;15333;50.010;20.020;2023-12-20T03:50:41;98109.91;;;7.31;49.01
28008;BME280;15333;50.010;20.020;2023-12-20T03:53:42;98102.13;;;7.28;49.35
28008;BME280;15333;50.010;20.020;2023-12-20T03:56:43;98111.56;;;7.08;50.24
28008;BME280;15333;50.010;20.020;2023-12-20T03:59:44;98105.41;;;7.08;50.11
28008;BME280;15333;50.010;20.020;2023-12-20T04:02:45;98106.28;;;6.96;50.50
28008;BME280;15333;50.010;20.020;2023-12-20T04:05:45;98104.16;;;7.01;50.86
28008;BME280;15333;50.010;20.020;2023-12-20T04:08:46;98095.22;;;7.02;50.97
28008;BME280;15333;50.010;20.020;2023-12-20T04:11:47;98095.31;;;7.00;51.16
28008;BME280;15333;50.010;20.020;2023-12-20T04:14:48;98095.13;;;6.91;51.15
28008;BME280;15333;50.010;20.020;2023-12-20T04:17:49;98094.16;;;6.92;51.37
28008;BME280;15333;50.010;20.020;2023-12-20T04:20:49;98082.78;;;6.90;50.99
28008;BME280;15333;50.010;20.020;2023-12-20T04:23:52;98088.53;;;6.84;51.20
28008;BME280;15333;50.010;20.020;2023-12-20T04:26:53;98085.78;;;6.85;51.04
28008;BME280;15333;50.010;20.020;2023-12-20T04:29:54;98090.59;;;6.80;51.62
28008;BME280;15333;50.010;20.020;2023-12-20T04:32:55;98081.84;;;6.78;51.99
28008;BME280;15333;50.010;20.020;2023-12-20T04:35:56;98089.94;;;6.77;51.86
28008;BME280;15333;50.010;20.020;2023-12-20T04:38:58;98095.50;;;6.74;52.73
28008;BME280;15333;50.010;20.020;2023-12-20T04:42:00;98093.38;;;6.66;52.80
28008;BME280;15333;50.010;20.020;2023-12-20T04:45:01;98096.75;;;6.68;53.17
28008;BME280;15333;50.010;20.020;2023-12-20T04:48:02;98096.09;;;6.77;53.37
28008;BME280;15333;50.010;20.020;2023-12-20T04:51:03;98099.75;;;6.63;53.64
28008;BME280;15333;50.010;20.020;2023-12-20T04:54:04;98102.09;;;6.55;54.17
28008;BME280;15333;50.010;20.020;2023-12-20T04:57:05;98110.63;;;6.60;53.73
28008;BME280;15333;50.010;20.020;2023-12-20T05:00:06;98110.91;;;6.68;53.88
28008;BME280;15333;50.010;20.020;2023-12-20T05:03:09;98119.84;;;6.67;54.91
28008;BME280;15333;50.010;20.020;2023-12-20T05:06:10;98111.66;;;6.71;55.79
28008;BME280;15333;50.010;20.020;2023-12-20T05:09:11;98112.84;;;6.66;57.43
28008;BME280;15333;50.010;20.020;2023-12-20T05:12:12;98105.28;;;6.60;58.61
28008;BME280;15333;50.010;20.020;2023-12-20T05:15:13;98108.34;;;6.54;60.48
28008;BME280;15333;50.010;20.020;2023-12-20T05:18:14;98107.84;;;6.49;62.26
28008;BME280;15333;50.010;20.020;2023-12-20T05:21:15;98111.03;;;6.42;63.40
28008;BME280;15333;50.010;20.020;2023-12-20T05:24:15;98113.38;;;6.34;65.17
28008;BME280;15333;50.010;20.020;2023-12-20T05:27:16;98118.16;;;6.16;67.71
28008;BME280;15333;50.010;20.020;2023-12-20T05:30:17;98110.19;;;6.16;69.35
28008;BME280;15333;50.010;20.020;2023-12-20T05:33:18;98105.91;;;6.01;71.69
28008;BME280;15333;50.010;20.020;2023-12-20T05:36:19;98109.53;;;6.00;73.30
28008;BME280;15333;50.010;20.020;2023-12-20T05:39:20;98100.81;;;5.98;74.43
28008;BME280;15333;50.010;20.020;2023-12-20T05:42:21;98101.03;;;5.95;77.34
28008;BME280;15333;50.010;20.020;2023-12-20T05:45:22;98107.16;;;5.82;79.30
28008;BME280;15333;50.010;20.020;2023-12-20T05:48:23;98089.94;;;5.75;81.76
28008;BME280;15333;50.010;20.020;2023-12-20T05:51:24;98086.78;;;5.56;85.72
28008;BME280;15333;50.010;20.020;2023-12-20T05:54:24;98100.69;;;5.47;90.06
28008;BME280;15333;50.010;20.020;2023-12-20T05:57:25;98090.56;;;5.39;94.03
28008;BME280;15333;50.010;20.020;2023-12-20T06:00:26;98090.69;;;5.50;97.33
28008;BME280;15333;50.010;20.020;2023-12-20T06:03:27;98092.13;;;5.29;100.00
28008;BME280;15333;50.010;20.020;2023-12-20T06:06:28;98101.97;;;5.27;100.00
28008;BME280;15333;50.010;20.020;2023-12-20T06:09:29;98098.47;;;5.27;100.00
28008;BME280;15333;50.010;20.020;2023-12-20T06:12:30;98114.38;;;5.27;100.00
28008;BME280;15333;50.010;20.020;2023-12-20T06:15:33;98117.53;;;5.19;100.00
28008;BME280;15333;50.010;20.020;2023-12-20T06:18:33;98121.34;;;5.15;100.00
28008;BME280;15333;50.010;20.020;2023-12-20T06:21:34;98106.47;;;5.12;100.00
28008;BME280;15333;50.010;20.020;2023-12-20T06:24:35;98110.47;;;5.05;100.00
28008;BME280;15333;50.010;20.020;2023-12-20T06:27:36;98114.06;;;5.04;100.00
28008;BME280;15333;50.010;20.020;2023-12-20T06:30:37;98117.50;;;4.92;100.00
28008;BME280;15333;50.010;20.020;2023-12-20T06:33:38;98119.03;;;4.96;94.51
28008;BME280;15333;50.010;20.020;2023-12-20T06:36:41;98131.81;;;4.90;89.68
28008;BME280;15333;50.010;20.020;2023-12-20T06:39:42;98115.25;;;4.86;85.58
28008;BME280;15333;50.010;20.020;2023-12-20T06:42:43;98111.09;;;4.82;84.09
28008;BME280;15333;50.010;20.020;2023-12-20T06:45:44;98109.28;;;4.83;82.70
28008;BME280;15333;50.010;20.020;2023-12-20T06:48:45;98116.28;;;4.84;81.78
28008;BME280;15333;50.010;20.020;2023-12-20T06:51:46;98111.44;;;4.76;81.27
28008;BME280;15333;50.010;20.020;2023-12-20T06:54:47;98120.94;;;4.80;80.41
28008;BME280;15333;50.010;20.020;2023-12-20T06:57:48;98114.31;;;4.73;80.13
28008;BME280;15333;50.010;20.020;2023-12-20T07:00:50;98126.03;;;4.83;79.22
28008;BME280;15333;50.010;20.020;2023-12-20T07:03:52;98125.09;;;4.70;79.72
28008;BME280;15333;50.010;20.020;2023-12-20T07:06:53;98121.13;;;4.63;79.69
28008;BME280;15333;50.010;20.020;2023-12-20T07:09:57;98116.22;;;4.57;79.30
28008;BME280;15333;50.010;20.020;2023-12-20T07:12:58;98111.69;;;4.59;78.95
28008;BME280;15333;50.010;20.020;2023-12-20T07:15:59;98120.19;;;4.50;78.30
28008;BME280;15333;50.010;20.020;2023-12-20T07:19:00;98132.78;;;4.46;78.25
28008;BME280;15333;50.010;20.020;2023-12-20T07:22:01;98141.38;;;4.50;76.99
28008;BME280;15333;50.010;20.020;2023-12-20T07:25:02;98138.09;;;4.46;77.56
28008;BME280;15333;50.010;20.020;2023-12-20T07:28:04;98142.31;;;4.49;77.37
28008;BME280;15333;50.010;20.020;2023-12-20T07:31:05;98139.13;;;4.44;76.90
28008;BME280;15333;50.010;20.020;2023-12-20T07:34:06;98132.09;;;4.43;76.46
28008;BME280;15333;50.010;20.020;2023-12-20T07:37:07;98143.25;;;4.48;76.51
28008;BME280;15333;50.010;20.020;2023-12-20T07:40:11;98149.53;;;4.47;75.75
28008;BME280;15333;50.010;20.020;2023-12-20T07:43:12;98149.88;;;4.41;75.80
28008;BME280;15333;50.010;20.020;2023-12-20T07:46:13;98154.44;;;4.39;75.36
28008;BME280;15333;50.010;20.020;2023-12-20T07:49:14;98148.56;;;4.48;75.43
28008;BME280;15333;50.010;20.020;2023-12-20T07:52:15;98153.13;;;4.46;74.96
28008;BME280;15333;50.010;20.020;2023-12-20T07:55:15;98148.00;;;4.43;75.47
28008;BME280;15333;50.010;20.020;2023-12-20T07:58:16;98153.31;;;4.43;75.47
28008;BME280;15333;50.010;20.020;2023-12-20T08:01:17;98160.31;;;4.44;75.49
28008;BME280;15333;50.010;20.020;2023-12-20T08:04:19;98165.22;;;4.50;74.96
28008;BME280;15333;50.010;20.020;2023-12-20T08:07:20;98167.78;;;4.51;75.41
28008;BME280;15333;50.010;20.020;2023-12-20T08:10:21;98153.50;;;4.54;74.89
28008;BME280;15333;50.010;20.020;2023-12-20T08:13:21;98148.94;;;4.56;74.75
28008;BME280;15333;50.010;20.020;2023-12-20T08:16:26;98148.78;;;4.59;75.32
28008;BME280;15333;50.010;20.020;2023-12-20T08:19:27;98147.81;;;4.46;75.35
28008;BME280;15333;50.010;20.020;2023-12-20T08:22:28;98141.47;;;4.48;75.19
28008;BME280;15333;50.010;20.020;2023-12-20T08:25:29;98155.88;;;4.44;74.42
28008;BME280;15333;50.010;20.020;2023-12-20T08:28:30;98149.88;;;4.41;74.45
28008;BME280;15333;50.010;20.020;2023-12-20T08:31:31;98149.34;;;4.50;74.97
28008;BME280;15333;50.010;20.020;2023-12-20T08:34:32;98148.38;;;4.37;73.90
28008;BME280;15333;50.010;20.020;2023-12-20T08:37:34;98142.72;;;4.43;74.57
28008;BME280;15333;50.010;20.020;2023-12-20T08:40:35;98145.81;;;4.35;74.63
28008;BME280;15333;50.010;20.020;2023-12-20T08:43:36;98137.03;;;4.34;74.04
28008;BME280;15333;50.010;20.020;2023-12-20T08:46:37;98135.91;;;4.39;73.67
28008;BME280;15333;50.010;20.020;2023-12-20T08:49:38;98148.56;;;4.33;73.54
28008;BME280;15333;50.010;20.020;2023-12-20T08:52:39;98155.00;;;4.44;74.54
28008;BME280;15333;50.010;20.020;2023-12-20T08:55:40;98144.41;;;4.44;73.71
28008;BME280;15333;50.010;20.020;2023-12-20T08:58:41;98148.78;;;4.45;74.75
28008;BME280;15333;50.010;20.020;2023-12-20T09:01:42;98141.00;;;4.42;74.70
28008;BME280;15333;50.010;20.020;2023-12-20T09:04:43;98131.63;;;4.36;74.00
28008;BME280;15333;50.010;20.020;2023-12-20T09:07:44;98150.56;;;4.44;74.84
28008;BME280;15333;50.010;20.020;2023-12-20T09:10:45;98149.72;;;4.44;74.75
28008;BME280;15333;50.010;20.020;2023-12-20T09:13:46;98152.91;;;4.49;74.45
28008;BME280;15333;50.010;20.020;2023-12-20T09:16:47;98141.00;;;4.42;73.95
28008;BME280;15333;50.010;20.020;2023-12-20T09:19:48;98144.13;;;4.34;74.25
28008;BME280;15333;50.010;20.020;2023-12-20T09:22:49;98135.91;;;4.39;74.34
28008;BME280;15333;50.010;20.020;2023-12-20T09:25:50;98150.47;;;4.31;74.27
28008;BME280;15333;50.010;20.020;2023-12-20T09:28:51;98152.19;;;4.32;75.06
28008;BME280;15333;50.010;20.020;2023-12-20T09:31:52;98138.25;;;4.29;74.27
28008;BME280;15333;50.010;20.020;2023-12-20T09:34:52;98134.56;;;4.31;74.49
28008;BME280;15333;50.010;20.020;2023-12-20T09:37:53;98135.69;;;4.27;74.48
28008;BME280;15333;50.010;20.020;2023-12-20T09:40:54;98133.03;;;4.27;73.91
28008;BME280;15333;50.010;20.020;2023-12-20T09:44:00;98133.41;;;4.21;73.46
28008;BME280;15333;50.010;20.020;2023-12-20T09:47:04;98117.16;;;4.27;72.96
28008;BME280;15333;50.010;20.020;2023-12-20T09:50:05;98120.19;;;4.21;73.25
28008;BME280;15333;50.010;20.020;2023-12-20T09:53:08;98128.03;;;4.23;73.57
28008;BME280;15333;50.010;20.020;2023-12-20T09:56:10;98126.41;;;4.20;73.21
28008;BME280;15333;50.010;20.020;2023-12-20T09:59:12;98118.47;;;4.20;73.13
28008;BME280;15333;50.010;20.020;2023-12-20T10:02:13;98127.47;;;4.18;72.32
28008;BME280;15333;50.010;20.020;2023-12-20T10:05:17;98119.41;;;4.19;72.39
28008;BME280;15333;50.010;20.020;2023-12-20T10:08:21;98100.78;;;4.21;71.73
28008;BME280;15333;50.010;20.020;2023-12-20T10:11:22;98100.78;;;4.21;71.71
28008;BME280;15333;50.010;20.020;2023-12-20T10:14:23;98111.47;;;4.19;72.04
28008;BME280;15333;50.010;20.020;2023-12-20T10:17:27;98100.53;;;4.25;72.07
28008;BME280;15333;50.010;20.020;2023-12-20T10:20:30;98101.44;;;4.10;72.57
28008;BME280;15333;50.010;20.020;2023-12-20T10:23:31;98116.41;;;4.11;72.27
28008;BME280;15333;50.010;20.020;2023-12-20T10:26:32;98112.78;;;4.12;71.98
28008;BME280;15333;50.010;20.020;2023-12-20T10:29:37;98105.97;;;4.08;72.47
28008;BME280;15333;50.010;20.020;2023-12-20T10:32:38;98106.84;;;4.09;71.93
28008;BME280;15333;50.010;20.020;2023-12-20T10:35:39;98105.91;;;4.10;72.63
28008;BME280;15333;50.010;20.020;2023-12-20T10:38:42;98109.94;;;4.01;72.48
28008;BME280;15333;50.010;20.020;2023-12-20T10:41:43;98112.31;;;4.06;72.28
28008;BME280;15333;50.010;20.020;2023-12-20T10:44:46;98107.38;;;4.00;72.64
28008;BME280;15333;50.010;20.020;2023-12-20T10:47:49;98105.03;;;3.95;73.01
28008;BME280;15333;50.010;20.020;2023-12-20T10:50:50;98099.72;;;3.95;72.47
28008;BME280;15333;50.010;20.020;2023-12-20T10:53:53;98093.19;;;4.01;73.10
28008;BME280;15333;50.010;20.020;2023-12-20T10:56:54;98094.59;;;3.92;73.25
28008;BME280;15333;50.010;20.020;2023-12-20T11:00:00;98078.72;;;3.92;72.82
28008;BME280;15333;50.010;20.020;2023-12-20T11:03:05;98086.19;;;3.85;71.68
28008;BME280;15333;50.010;20.020;2023-12-20T11:09:40;98083.34;;;3.88;72.38
28008;BME280;15333;50.010;20.020;2023-12-20T11:12:58;98083.63;;;3.98;71.42
28008;BME280;15333;50.010;20.020;2023-12-20T11:16:03;98094.34;;;3.97;72.13
28008;BME280;15333;50.010;20.020;2023-12-20T11:19:05;98088.59;;;4.04;71.51
28008;BME280;15333;50.010;20.020;2023-12-20T11:22:06;98093.88;;;4.04;71.50
28008;BME280;15333;50.010;20.020;2023-12-20T11:25:11;98092.34;;;4.00;71.15
28008;BME280;15333;50.010;20.020;2023-12-20T11:28:12;98091.31;;;4.03;72.11
28008;BME280;15333;50.010;20.020;2023-12-20T11:31:14;98092.19;;;4.03;70.96
28008;BME280;15333;50.010;20.020;2023-12-20T11:34:14;98085.34;;;3.99;72.09
28008;BME280;15333;50.010;20.020;2023-12-20T11:37:19;98096.41;;;4.06;71.70
28008;BME280;15333;50.010;20.020;2023-12-20T11:40:20;98086.88;;;4.03;71.71
28008;BME280;15333;50.010;20.020;2023-12-20T11:43:36;98078.56;;;4.09;72.03
28008;BME280;15333;50.010;20.020;2023-12-20T11:46:37;98077.53;;;4.12;72.11
28008;BME280;15333;50.010;20.020;2023-12-20T11:49:38;98073.06;;;4.12;72.02
28008;BME280;15333;50.010;20.020;2023-12-20T11:52:38;98068.34;;;4.17;71.45
28008;BME280;15333;50.010;20.020;2023-12-20T11:55:39;98069.78;;;4.23;72.38
28008;BME280;15333;50.010;20.020;2023-12-20T11:58:40;98071.56;;;4.22;72.05
28008;BME280;15333;50.010;20.020;2023-12-20T12:01:48;98061.66;;;4.26;73.04
28008;BME280;15333;50.010;20.020;2023-12-20T12:04:50;98074.78;;;4.27;72.18
28008;BME280;15333;50.010;20.020;2023-12-20T12:07:54;98066.28;;;4.22;72.41
28008;BME280;15333;50.010;20.020;2023-12-20T12:10:54;98075.91;;;4.23;72.39
28008;BME280;15333;50.010;20.020;2023-12-20T12:13:55;98085.19;;;4.30;72.76
28008;BME280;15333;50.010;20.020;2023-12-20T12:16:56;98073.06;;;4.26;73.27
28008;BME280;15333;50.010;20.020;2023-12-20T12:20:04;98073.06;;;4.26;73.78
28008;BME280;15333;50.010;20.020;2023-12-20T12:23:06;98083.88;;;4.23;73.74
28008;BME280;15333;50.010;20.020;2023-12-20T12:26:07;98078.94;;;4.17;73.24
28008;BME280;15333;50.010;20.020;2023-12-20T12:29:09;98066.66;;;4.16;73.45
28008;BME280;15333;50.010;20.020;2023-12-20T12:32:10;98067.50;;;4.17;73.00
28008;BME280;15333;50.010;20.020;2023-12-20T12:35:11;98067.22;;;4.21;72.91
28008;BME280;15333;50.010;20.020;2023-12-20T12:38:12;98056.63;;;4.21;73.40
28008;BME280;15333;50.010;20.020;2023-12-20T12:41:13;98055.84;;;4.19;73.71
28008;BME280;15333;50.010;20.020;2023-12-20T12:44:16;98060.03;;;4.23;73.31
28008;BME280;15333;50.010;20.020;2023-12-20T12:47:18;98062.69;;;4.23;72.79
28008;BME280;15333;50.010;20.020;2023-12-20T12:50:19;98076.88;;;4.22;73.64
28008;BME280;15333;50.010;20.020;2023-12-20T12:53:20;98064.56;;;4.21;73.90
28008;BME280;15333;50.010;20.020;2023-12-20T12:56:21;98070.63;;;4.23;73.34
28008;BME280;15333;50.010;20.020;2023-12-20T12:59:22;98075.38;;;4.18;73.87
28008;BME280;15333;50.010;20.020;2023-12-20T13:02:23;98071.75;;;4.19;72.82
28008;BME280;15333;50.010;20.020;2023-12-20T13:05:24;98071.56;;;4.22;72.79
28008;BME280;15333;50.010;20.020;2023-12-20T13:08:26;98076.94;;;4.21;73.21
28008;BME280;15333;50.010;20.020;2023-12-20T13:11:26;98058.88;;;4.27;73.31
28008;BME280;15333;50.010;20.020;2023-12-20T13:14:27;98060.41;;;4.31;73.75
28008;BME280;15333;50.010;20.020;2023-12-20T13:17:28;98073.56;;;4.33;73.83
28008;BME280;15333;50.010;20.020;2023-12-20T13:20:29;98080.66;;;4.32;73.34
28008;BME280;15333;50.010;20.020;2023-12-20T13:23:30;98074.78;;;4.27;73.94
28008;BME280;15333;50.010;20.020;2023-12-20T13:26:31;98069.31;;;4.30;74.02
28008;BME280;15333;50.010;20.020;2023-12-20T13:29:32;98080.28;;;4.24;73.66
28008;BME280;15333;50.010;20.020;2023-12-20T13:32:33;98085.19;;;4.30;74.33
28008;BME280;15333;50.010;20.020;2023-12-20T13:35:34;98084.25;;;4.31;74.23
28008;BME280;15333;50.010;20.020;2023-12-20T13:38:35;98082.34;;;4.33;74.36
28008;BME280;15333;50.010;20.020;2023-12-20T13:41:36;98086.50;;;4.38;74.35
28008;BME280;15333;50.010;20.020;2023-12-20T13:44:37;98084.63;;;4.40;74.20
28008;BME280;15333;50.010;20.020;2023-12-20T13:47:37;98081.00;;;4.41;75.33
28008;BME280;15333;50.010;20.020;2023-12-20T13:50:39;98087.63;;;4.33;74.38
28008;BME280;15333;50.010;20.020;2023-12-20T13:53:40;98088.41;;;4.36;75.67
28008;BME280;15333;50.010;20.020;2023-12-20T13:56:41;98091.13;;;4.34;76.39
28008;BME280;15333;50.010;20.020;2023-12-20T13:59:41;98082.47;;;4.32;77.05
28008;BME280;15333;50.010;20.020;2023-12-20T14:02:42;98077.41;;;4.42;77.17
28008;BME280;15333;50.010;20.020;2023-12-20T14:05:43;98081.50;;;4.33;77.17
28008;BME280;15333;50.010;20.020;2023-12-20T14:08:44;98085.84;;;4.34;76.35
28008;BME280;15333;50.010;20.020;2023-12-20T14:11:45;98084.97;;;4.33;76.00
28008;BME280;15333;50.010;20.020;2023-12-20T14:14:46;98087.28;;;4.40;76.65
28008;BME280;15333;50.010;20.020;2023-12-20T14:17:47;98084.81;;;4.37;75.63
28008;BME280;15333;50.010;20.020;2023-12-20T14:20:48;98089.47;;;4.33;75.67
28008;BME280;15333;50.010;20.020;2023-12-20T14:23:51;98090.09;;;4.37;75.88
28008;BME280;15333;50.010;20.020;2023-12-20T14:26:53;98091.25;;;4.47;75.71
28008;BME280;15333;50.010;20.020;2023-12-20T14:29:54;98078.00;;;4.32;76.50
28008;BME280;15333;50.010;20.020;2023-12-20T14:32:55;98077.72;;;4.23;75.54
28008;BME280;15333;50.010;20.020;2023-12-20T14:35:56;98075.34;;;4.04;75.93
28008;BME280;15333;50.010;20.020;2023-12-20T14:38:57;98087.81;;;4.02;75.25
28008;BME280;15333;50.010;20.020;2023-12-20T14:41:58;98083.84;;;4.09;76.20
28008;BME280;15333;50.010;20.020;2023-12-20T14:44:59;98087.06;;;4.14;75.19
28008;BME280;15333;50.010;20.020;2023-12-20T14:48:00;98080.19;;;4.12;75.88
28008;BME280;15333;50.010;20.020;2023-12-20T14:51:01;98080.84;;;4.15;76.37
28008;BME280;15333;50.010;20.020;2023-12-20T14:54:02;98077.03;;;4.19;78.02
28008;BME280;15333;50.010;20.020;2023-12-20T14:57:03;98084.41;;;4.14;77.51
28008;BME280;15333;50.010;20.020;2023-12-20T15:00:05;98082.53;;;4.16;77.89
28008;BME280;15333;50.010;20.020;2023-12-20T15:03:06;98087.84;;;4.16;77.22
28008;BME280;15333;50.010;20.020;2023-12-20T15:06:07;98081.97;;;4.25;78.20
28008;BME280;15333;50.010;20.020;2023-12-20T15:09:12;98085.19;;;4.16;77.28
28008;BME280;15333;50.010;20.020;2023-12-20T15:12:13;98082.16;;;4.22;78.39
28008;BME280;15333;50.010;20.020;2023-12-20T15:15:14;98087.47;;;4.22;77.39
28008;BME280;15333;50.010;20.020;2023-12-20T15:18:15;98074.13;;;4.24;77.07
28008;BME280;15333;50.010;20.020;2023-12-20T15:21:16;98082.16;;;4.22;77.75
28008;BME280;15333;50.010;20.020;2023-12-20T15:24:17;98089.72;;;4.28;76.92
28008;BME280;15333;50.010;20.020;2023-12-20T15:27:20;98092.56;;;4.54;76.91
28008;BME280;15333;50.010;20.020;2023-12-20T15:30:21;98088.69;;;4.45;nan
28008;BME280;15333;50.010;20.020;2023-12-20T15:33:22;98082.53;;;4.30;77.04
28008;BME280;15333;50.010;20.020;2023-12-20T15:36:23;98089.81;;;4.27;77.63
28008;BME280;15333;50.010;20.020;2023-12-20T15:39:24;98092.75;;;4.22;77.48
28008;BME280;15333;50.010;20.020;2023-12-20T15:42:25;98089.53;;;4.17;77.50
28008;BME280;15333;50.010;20.020;2023-12-20T15:45:26;98092.56;;;3.97;77.83
28008;BME280;15333;50.010;20.020;2023-12-20T15:48:27;98087.06;;;4.00;77.81
28008;BME280;15333;50.010;20.020;2023-12-20T15:51:30;98083.56;;;4.00;77.97
28008;BME280;15333;50.010;20.020;2023-12-20T15:54:30;98099.91;;;3.92;77.57
28008;BME280;15333;50.010;20.020;2023-12-20T15:57:31;98097.16;;;3.93;77.58
28008;BME280;15333;50.010;20.020;2023-12-20T16:00:32;98099.16;;;3.90;78.07
28008;BME280;15333;50.010;20.020;2023-12-20T16:03:33;98100.09;;;3.89;78.64